aviador You're here:

KSUN Decoded Metar

HAILEY/FRIEDMAN in ID, USA
Report Time2017-10-19 20:50:00
UTC Time2017-10-19 21:46:35
Flight Rules vfr VFR
Wind100° at 06 kt
W.Decomp.*RWY 13: 4.2 kt HW 4.3 kt LCW
W.Rank100° ranks 24
Current wind is below 100° avg. (6.9)
Visibility9999 m
Phenomena:N/A
Clouds:N/A
Expected CloudBase > 9,200 ft AGL from Temp-Dew spread
CeilingNone
Temp18°C (ISA +14)
Dew Point-5°C (21% RH)
AAT13.3°C
QNH1012 hPa
Density Alt6,978 ft
Elevation5,315 ft
Report Wrong Elevation
Raw Report
KSUN 192050Z 10006KT 10SM SKC 18/M05 A2988=

Extra information for KSUN:More info

Metar Taf Metar & Taf Last 4 Metars F.Rules Stats Wind Profile Meteogram Temp Stats Airport Information Weather charts Add Link Nearby VenuesMetar ALERT Operation Metar Decoded Social comments

AIRNAV info for KSUN